Tres Isletas, Argentina
Current Conditions -  °F | °C
As of 7:00 PM on Thursday 18 Dec 2014 (Local Time) from SARE Reporting Station
Scattered Clouds Scattered Clouds  
Wind Chill: 30°   Ceiling: Unl
Heat Index: 32°   Visibility: 6mi
Dew Point: 21°   Wind: 2mph
Humidity: 58%   Direction: 140°SE
Pressure: 29.77"   Gusts: NA
Location:  26.35°S, 60.43°W
Report Text: SARE 182200Z 14002KT 9999 FEW030TCU SCT200 30/21 Q1008
Loading
Personal Weather Stations






























Interactive Weather Map New forecast layout! Learn more

10-Day Weather Forecast

Advertisements
Track Severe Weather on mobile